Time;durP1;ratioP1;P1;durP2;ratioP2;P2;SDS_P1;SDS_P2;PMS_P1;PMS_P2;Temp;Humidity;BMP_temperature;BMP_pressure;BME280_temperature;BME280_humidity;BME280_pressure;Samples;Min_cycle;Max_cycle;Signal;HPM_P1;HPM_P2
2023/01/25 00:00:11;;;;;;;26.65;18.73;;;0.80;99.90;;;;;;7335316;32;20467;-60
2023/01/25 00:04:12;;;;;;;26.35;19.23;;;0.80;99.90;;;;;;7339799;32;20518;-59
2023/01/25 00:08:15;;;;;;;26.55;18.60;;;0.70;99.90;;;;;;7338090;32;20574;-60
2023/01/25 00:12:17;;;;;;;27.00;18.87;;;0.80;99.90;;;;;;7340568;32;20476;-61
2023/01/25 00:16:19;;;;;;;27.30;19.27;;;0.70;99.90;;;;;;7330644;32;20245;-61
2023/01/25 00:20:20;;;;;;;30.48;20.08;;;0.80;99.90;;;;;;7338538;32;20161;-60
2023/01/25 00:24:24;;;;;;;25.55;18.33;;;0.80;99.90;;;;;;7331072;32;20499;-60
2023/01/25 00:28:26;;;;;;;25.73;18.70;;;0.80;99.90;;;;;;7335262;32;20119;-60
2023/01/25 00:32:36;;;;;;;26.37;17.80;;;0.80;99.90;;;;;;7331443;32;20472;-62
2023/01/25 00:36:40;;;;;;;28.87;19.52;;;0.80;99.90;;;;;;7337186;32;20540;-61
2023/01/25 00:40:41;;;;;;;27.75;18.83;;;0.80;99.90;;;;;;7335809;32;20126;-61
2023/01/25 00:44:43;;;;;;;27.17;19.40;;;0.70;99.90;;;;;;7339568;32;20130;-60
2023/01/25 00:48:45;;;;;;;26.90;19.67;;;0.70;99.90;;;;;;7325573;32;20257;-61
2023/01/25 00:52:47;;;;;;;30.77;20.25;;;0.80;99.90;;;;;;7331252;32;20126;-60
2023/01/25 00:56:52;;;;;;;28.33;20.30;;;0.80;99.90;;;;;;7333763;32;20502;-61
2023/01/25 01:00:55;;;;;;;30.77;21.20;;;0.80;99.90;;;;;;7332239;32;20107;-60
2023/01/25 01:04:57;;;;;;;31.35;21.70;;;0.80;99.90;;;;;;7340172;32;20125;-61
2023/01/25 01:08:59;;;;;;;31.37;20.80;;;0.70;99.90;;;;;;7336292;32;20375;-60
2023/01/25 01:13:01;;;;;;;26.98;19.25;;;0.80;99.90;;;;;;7335412;32;20226;-60
2023/01/25 01:17:03;;;;;;;25.05;19.12;;;0.90;99.90;;;;;;7338143;32;20387;-60
2023/01/25 01:21:07;;;;;;;26.85;18.65;;;0.80;99.90;;;;;;7321251;32;20243;-60
2023/01/25 01:25:09;;;;;;;24.60;18.20;;;0.80;99.90;;;;;;7328996;32;20179;-60
2023/01/25 01:29:11;;;;;;;25.10;17.87;;;0.90;99.90;;;;;;7344612;32;20120;-60
2023/01/25 01:33:13;;;;;;;24.77;17.90;;;1.00;99.90;;;;;;7343483;32;20141;-60
2023/01/25 01:37:15;;;;;;;24.33;17.70;;;1.00;99.90;;;;;;7349336;32;20418;-62
2023/01/25 01:41:18;;;;;;;21.52;16.77;;;0.90;99.90;;;;;;7342347;32;20416;-60
2023/01/25 01:45:48;;;;;;;25.33;16.83;;;1.00;99.90;;;;;;7343866;32;20258;-60
2023/01/25 01:49:54;;;;;;;26.60;18.15;;;0.90;99.90;;;;;;7344093;32;20222;-60
2023/01/25 01:54:18;;;;;;;25.73;18.50;;;1.00;99.90;;;;;;7337756;32;20446;-60
2023/01/25 01:58:19;;;;;;;27.90;18.73;;;0.80;99.90;;;;;;7338610;32;20513;-60
2023/01/25 02:02:24;;;;;;;23.80;16.52;;;0.90;99.90;;;;;;7333929;32;20469;-60
2023/01/25 02:06:51;;;;;;;24.15;16.45;;;1.00;99.90;;;;;;7332779;32;20165;-61
2023/01/25 02:10:53;;;;;;;24.83;17.37;;;0.90;99.90;;;;;;7343213;32;20576;-59
2023/01/25 02:14:55;;;;;;;26.40;17.73;;;0.90;99.90;;;;;;7335382;32;20558;-61
2023/01/25 02:19:00;;;;;;;26.42;17.35;;;0.90;99.90;;;;;;7341680;32;20123;-59
2023/01/25 02:23:17;;;;;;;24.77;17.80;;;0.90;99.90;;;;;;7330136;32;20127;-60
2023/01/25 02:27:20;;;;;;;27.83;18.80;;;0.80;99.90;;;;;;7333123;32;20200;-59
2023/01/25 02:31:21;;;;;;;28.30;19.55;;;0.80;99.90;;;;;;7341507;32;20123;-59
2023/01/25 02:35:36;;;;;;;28.50;19.05;;;0.70;99.90;;;;;;7337053;32;20133;-59
2023/01/25 02:39:39;;;;;;;25.67;18.55;;;0.60;99.90;;;;;;7330981;32;20119;-61
2023/01/25 02:43:41;;;;;;;28.42;18.80;;;0.60;99.90;;;;;;7330398;32;20167;-61
2023/01/25 02:47:43;;;;;;;25.62;18.40;;;0.60;99.90;;;;;;7332170;32;20099;-62
2023/01/25 02:51:51;;;;;;;25.92;18.48;;;0.70;99.90;;;;;;7341838;32;20586;-61
2023/01/25 02:55:52;;;;;;;26.58;18.48;;;0.60;99.90;;;;;;7341341;32;20187;-59
2023/01/25 02:59:54;;;;;;;29.35;19.48;;;0.70;99.90;;;;;;7337776;32;20167;-59
2023/01/25 03:03:56;;;;;;;29.50;20.75;;;0.60;99.90;;;;;;7336237;32;20656;-60
2023/01/25 03:07:57;;;;;;;31.15;19.45;;;0.60;99.90;;;;;;7327531;32;20161;-59
2023/01/25 03:11:59;;;;;;;29.65;19.83;;;0.50;99.90;;;;;;7338631;32;20226;-59
2023/01/25 03:16:04;;;;;;;27.45;18.67;;;0.40;99.90;;;;;;7336142;32;20099;-59
2023/01/25 03:20:07;;;;;;;29.42;18.83;;;0.40;99.90;;;;;;7327463;32;20181;-60
2023/01/25 03:24:09;;;;;;;29.70;20.33;;;0.40;99.90;;;;;;7336423;32;20227;-59
2023/01/25 03:28:11;;;;;;;30.92;20.25;;;0.40;99.90;;;;;;7329610;32;20161;-59
2023/01/25 03:32:12;;;;;;;32.28;20.15;;;0.40;99.90;;;;;;7333974;32;20376;-60
2023/01/25 03:36:14;;;;;;;27.40;18.70;;;0.40;99.90;;;;;;7332245;32;20580;-59
2023/01/25 03:40:16;;;;;;;27.92;18.55;;;0.50;99.90;;;;;;7345513;32;20110;-59
2023/01/25 03:44:18;;;;;;;32.03;19.92;;;0.40;99.90;;;;;;7343926;32;20217;-60
2023/01/25 03:48:20;;;;;;;31.08;20.12;;;0.40;99.90;;;;;;7339792;32;20214;-59
2023/01/25 03:52:23;;;;;;;34.13;21.12;;;0.30;99.90;;;;;;7331564;32;20267;-59
2023/01/25 03:56:25;;;;;;;32.80;20.55;;;0.30;99.90;;;;;;7332737;32;20330;-61
2023/01/25 04:00:27;;;;;;;31.58;20.25;;;0.40;99.90;;;;;;7329217;32;20107;-59
2023/01/25 04:04:28;;;;;;;26.48;18.85;;;0.50;99.90;;;;;;7342947;32;20138;-59
2023/01/25 04:08:30;;;;;;;30.58;19.35;;;0.60;99.90;;;;;;7337050;32;20265;-60
2023/01/25 04:12:32;;;;;;;27.50;17.92;;;0.60;99.90;;;;;;7340306;32;20289;-59
2023/01/25 04:16:34;;;;;;;30.70;18.10;;;0.70;99.90;;;;;;7336688;32;20419;-59
2023/01/25 04:20:36;;;;;;;30.12;19.85;;;0.80;99.90;;;;;;7339084;32;20509;-60
2023/01/25 04:24:38;;;;;;;27.67;19.00;;;0.80;99.90;;;;;;7339425;32;20182;-59
2023/01/25 04:28:40;;;;;;;26.70;18.30;;;0.70;99.90;;;;;;7335680;32;20231;-59
2023/01/25 04:32:42;;;;;;;26.95;18.92;;;0.70;99.90;;;;;;7339197;32;20274;-60
2023/01/25 04:36:44;;;;;;;30.17;18.70;;;0.60;99.90;;;;;;7344123;32;20132;-60
2023/01/25 04:40:45;;;;;;;28.12;19.75;;;0.70;99.90;;;;;;7346998;32;20707;-61
2023/01/25 04:44:47;;;;;;;29.33;19.60;;;0.70;99.90;;;;;;7328449;32;20438;-59
2023/01/25 04:48:49;;;;;;;29.02;19.05;;;0.70;99.90;;;;;;7338207;32;20158;-62
2023/01/25 04:52:51;;;;;;;27.15;17.95;;;0.80;99.90;;;;;;7330566;32;20543;-60
2023/01/25 04:56:53;;;;;;;27.73;18.62;;;0.90;99.90;;;;;;7350167;32;20099;-59
2023/01/25 05:01:00;;;;;;;26.05;18.27;;;0.90;99.90;;;;;;7350450;32;20338;-60
2023/01/25 05:05:02;;;;;;;26.80;17.65;;;0.70;99.90;;;;;;7330384;32;20103;-59
2023/01/25 05:09:04;;;;;;;28.12;17.70;;;0.70;99.90;;;;;;7349084;32;20111;-60
2023/01/25 05:13:05;;;;;;;24.40;16.33;;;0.80;99.90;;;;;;7343408;32;20234;-62
2023/01/25 05:17:07;;;;;;;26.58;17.37;;;0.90;99.90;;;;;;7341590;32;20198;-59
2023/01/25 05:21:56;;;;;;;28.05;17.65;;;0.90;99.90;;;;;;7345164;32;20198;-60
2023/01/25 05:29:51;;;;;;;28.83;18.12;;;0.90;99.90;;;;;;7339029;32;20148;-59
2023/01/25 05:33:53;;;;;;;32.40;19.52;;;0.80;99.90;;;;;;7337415;32;20194;-60
2023/01/25 05:37:58;;;;;;;29.87;19.00;;;0.80;99.90;;;;;;7350106;32;20499;-60
2023/01/25 05:42:00;;;;;;;31.67;19.70;;;0.80;99.90;;;;;;7342535;32;20210;-60
2023/01/25 05:46:01;;;;;;;29.77;19.00;;;0.80;99.90;;;;;;7337330;32;20112;-60
2023/01/25 05:50:04;;;;;;;31.92;19.85;;;0.90;99.90;;;;;;7345212;32;20218;-60
2023/01/25 05:54:11;;;;;;;31.55;19.05;;;1.00;99.90;;;;;;7335931;32;20307;-60
2023/01/25 05:58:12;;;;;;;30.85;19.12;;;1.00;99.90;;;;;;7335513;32;20522;-63
2023/01/25 06:02:14;;;;;;;35.10;20.20;;;0.90;99.90;;;;;;7334430;32;20108;-61
2023/01/25 06:06:16;;;;;;;34.90;21.27;;;0.80;99.90;;;;;;7344768;32;20190;-61
2023/01/25 06:10:18;;;;;;;35.30;21.45;;;0.90;99.90;;;;;;7343920;32;20133;-61
2023/01/25 06:14:19;;;;;;;37.05;22.62;;;0.90;99.90;;;;;;7340412;32;20226;-61
2023/01/25 06:18:23;;;;;;;38.03;22.50;;;0.90;99.90;;;;;;7335389;32;20601;-59
2023/01/25 06:22:25;;;;;;;37.30;22.75;;;0.90;99.90;;;;;;7339209;32;20429;-60
2023/01/25 06:26:26;;;;;;;42.00;23.45;;;0.90;99.90;;;;;;7343995;32;20229;-60
2023/01/25 06:30:28;;;;;;;43.63;25.95;;;0.90;99.90;;;;;;7343028;32;20220;-59
2023/01/25 06:34:30;;;;;;;44.15;25.45;;;1.00;99.90;;;;;;7341072;32;20589;-60
2023/01/25 06:38:32;;;;;;;46.17;26.05;;;1.00;99.90;;;;;;7335581;32;20746;-60
2023/01/25 06:42:34;;;;;;;43.72;25.35;;;1.10;99.90;;;;;;7337747;32;20148;-60
2023/01/25 06:46:36;;;;;;;41.65;24.73;;;1.10;99.90;;;;;;7337700;32;20820;-60
2023/01/25 06:50:39;;;;;;;41.53;25.33;;;1.20;99.90;;;;;;7335819;32;20222;-61
2023/01/25 06:54:41;;;;;;;41.42;26.10;;;1.00;99.90;;;;;;7335511;32;20893;-60
2023/01/25 06:58:43;;;;;;;47.67;28.45;;;0.90;99.90;;;;;;7332662;32;20149;-60
2023/01/25 07:02:45;;;;;;;39.17;25.08;;;0.90;99.90;;;;;;7329647;32;20756;-60
2023/01/25 07:06:46;;;;;;;37.78;24.30;;;1.00;99.90;;;;;;7339204;32;20107;-60
2023/01/25 07:10:56;;;;;;;37.88;23.12;;;0.90;99.90;;;;;;7337480;32;20202;-61
2023/01/25 07:14:57;;;;;;;41.42;24.55;;;0.90;99.90;;;;;;7334462;32;20493;-59
2023/01/25 07:18:59;;;;;;;40.15;25.17;;;0.90;99.90;;;;;;7334111;32;20137;-60
2023/01/25 07:23:01;;;;;;;42.75;25.45;;;0.80;99.90;;;;;;7339301;32;20111;-61
2023/01/25 07:27:03;;;;;;;37.85;24.52;;;0.90;99.90;;;;;;7342370;32;20559;-60
2023/01/25 07:31:06;;;;;;;38.65;23.73;;;0.90;99.90;;;;;;7339352;32;20257;-61
2023/01/25 07:35:08;;;;;;;41.47;25.40;;;1.00;99.90;;;;;;7334216;32;20597;-61
2023/01/25 07:39:10;;;;;;;44.70;26.58;;;1.00;99.90;;;;;;7337828;32;20206;-61
2023/01/25 07:43:12;;;;;;;40.67;24.48;;;0.90;99.90;;;;;;7340360;32;20127;-61
2023/01/25 07:47:14;;;;;;;35.38;23.10;;;1.00;99.90;;;;;;7338520;32;20210;-61
2023/01/25 07:51:21;;;;;;;38.05;24.33;;;1.00;99.90;;;;;;7338835;32;20186;-61
2023/01/25 07:55:24;;;;;;;39.20;24.12;;;0.90;99.90;;;;;;7344439;32;20515;-61
2023/01/25 07:59:26;;;;;;;41.35;25.25;;;0.70;99.90;;;;;;7339890;32;20107;-62
2023/01/25 08:03:27;;;;;;;38.17;24.20;;;0.80;99.90;;;;;;7344305;32;20110;-60
2023/01/25 08:07:29;;;;;;;38.40;24.60;;;0.80;99.90;;;;;;7338405;32;20151;-61
2023/01/25 08:11:31;;;;;;;41.05;23.87;;;0.70;99.90;;;;;;7340142;32;20422;-61
2023/01/25 08:15:33;;;;;;;40.75;25.05;;;0.80;99.90;;;;;;7342810;32;20179;-61
2023/01/25 08:19:35;;;;;;;40.55;25.55;;;0.60;99.90;;;;;;7336732;32;20461;-61
2023/01/25 08:23:37;;;;;;;42.47;26.48;;;0.60;99.90;;;;;;7336892;32;20230;-62
2023/01/25 08:27:38;;;;;;;41.85;25.20;;;0.60;99.90;;;;;;7333159;32;20147;-62
2023/01/25 08:31:42;;;;;;;46.03;26.33;;;0.60;99.90;;;;;;7347900;32;20223;-62
2023/01/25 08:35:55;;;;;;;43.03;25.00;;;0.50;99.90;;;;;;7346472;32;20208;-60
2023/01/25 08:39:58;;;;;;;44.92;25.20;;;0.60;99.90;;;;;;7329163;32;20262;-61
2023/01/25 08:44:00;;;;;;;44.03;24.75;;;0.50;99.90;;;;;;7347783;32;20182;-60
2023/01/25 08:48:02;;;;;;;42.20;25.58;;;0.50;99.90;;;;;;7341203;32;20104;-61
2023/01/25 08:52:04;;;;;;;46.00;26.65;;;0.50;99.90;;;;;;7322718;32;20106;-61
2023/01/25 08:56:08;;;;;;;45.75;26.67;;;0.40;99.90;;;;;;7348997;32;20122;-61
2023/01/25 09:00:10;;;;;;;42.53;24.92;;;0.50;99.90;;;;;;7324248;32;20111;-62
2023/01/25 09:04:12;;;;;;;44.55;27.25;;;0.50;99.90;;;;;;7338611;32;20107;-60
2023/01/25 09:08:14;;;;;;;46.20;26.58;;;0.50;99.90;;;;;;7337780;32;20469;-60
2023/01/25 09:12:16;;;;;;;41.22;25.27;;;0.60;99.90;;;;;;7340568;32;20133;-60
2023/01/25 09:16:27;;;;;;;41.55;24.30;;;0.80;99.90;;;;;;7341302;32;20104;-60
2023/01/25 09:20:29;;;;;;;43.92;24.60;;;0.80;99.90;;;;;;7341272;32;20324;-61
2023/01/25 09:24:35;;;;;;;47.15;26.55;;;0.70;99.90;;;;;;7346070;32;20116;-61
2023/01/25 09:28:38;;;;;;;47.60;27.52;;;0.70;99.90;;;;;;7336169;32;20247;-61
2023/01/25 09:32:39;;;;;;;48.15;27.45;;;0.70;99.90;;;;;;7338060;32;20139;-61
2023/01/25 09:36:41;;;;;;;44.03;26.50;;;0.60;99.90;;;;;;7349876;32;20575;-62
2023/01/25 09:41:07;;;;;;;45.60;27.90;;;0.60;99.90;;;;;;7338618;32;20095;-62
2023/01/25 09:45:30;;;;;;;45.30;26.50;;;0.70;99.90;;;;;;7321892;32;20210;-61
2023/01/25 09:49:47;;;;;;;48.85;27.85;;;0.70;99.90;;;;;;7337861;32;20231;-61
2023/01/25 09:53:52;;;;;;;46.28;26.87;;;0.70;99.90;;;;;;7342340;32;20163;-61
2023/01/25 09:57:58;;;;;;;46.08;27.13;;;0.70;99.90;;;;;;7336774;32;20266;-61
2023/01/25 10:02:26;;;;;;;48.28;28.00;;;0.60;99.90;;;;;;7342075;32;20204;-61
2023/01/25 10:06:34;;;;;;;;;;;0.60;99.90;;;;;;7338045;32;20230;-61
2023/01/25 10:10:40;;;;;;;50.97;28.23;;;0.80;99.90;;;;;;7342946;32;20054;-61
2023/01/25 10:14:41;;;;;;;51.10;28.25;;;0.80;99.90;;;;;;7337720;32;20270;-61
2023/01/25 10:18:46;;;;;;;51.05;27.27;;;0.80;99.90;;;;;;7342926;32;20203;-60
2023/01/25 10:23:11;;;;;;;49.58;27.70;;;0.60;99.90;;;;;;7340252;32;20103;-61
2023/01/25 10:27:27;;;;;;;48.17;29.33;;;0.70;99.90;;;;;;7340454;32;20300;-61
2023/01/25 10:31:43;;;;;;;53.13;30.25;;;0.70;99.90;;;;;;7332711;32;20129;-61
2023/01/25 10:35:47;;;;;;;52.28;28.98;;;0.70;99.90;;;;;;7343348;32;20216;-61
2023/01/25 10:40:13;;;;;;;54.75;30.67;;;0.70;99.90;;;;;;7330849;32;20127;-61
2023/01/25 10:44:22;;;;;;;55.78;32.00;;;0.70;99.90;;;;;;7335583;32;20133;-62
2023/01/25 10:48:36;;;;;;;56.88;30.62;;;0.80;99.90;;;;;;7333267;32;20135;-61
2023/01/25 10:52:37;;;;;;;46.00;27.62;;;0.90;99.90;;;;;;7344707;32;20214;-61
2023/01/25 10:56:41;;;;;;;49.28;29.08;;;1.00;99.90;;;;;;7343461;32;20215;-61
2023/01/25 11:00:49;;;;;;;46.47;27.33;;;1.00;99.90;;;;;;7341815;32;20420;-60
2023/01/25 11:04:51;;;;;;;48.20;27.92;;;1.00;99.90;;;;;;7343198;32;20703;-61
2023/01/25 11:08:53;;;;;;;47.80;27.60;;;1.10;99.90;;;;;;7342748;32;20194;-60
2023/01/25 11:13:14;;;;;;;52.25;29.55;;;1.10;99.90;;;;;;7329609;32;20107;-61
2023/01/25 11:17:30;;;;;;;48.85;26.60;;;1.10;99.90;;;;;;7346371;32;20371;-61
2023/01/25 11:21:33;;;;;;;48.23;26.73;;;1.10;99.90;;;;;;7344967;32;20455;-63
2023/01/25 11:25:35;;;;;;;47.10;25.60;;;1.10;99.90;;;;;;7346000;32;20198;-62
2023/01/25 11:29:37;;;;;;;45.22;25.00;;;1.00;99.90;;;;;;7342306;32;20167;-62
2023/01/25 11:33:40;;;;;;;44.83;25.70;;;1.20;99.90;;;;;;7320730;32;20198;-60
2023/01/25 11:38:11;;;;;;;49.33;25.65;;;1.20;99.90;;;;;;7339158;32;20194;-61
2023/01/25 11:42:34;;;;;;;53.90;27.15;;;1.00;99.90;;;;;;7338202;32;20130;-60
2023/01/25 11:46:48;;;;;;;51.22;26.90;;;1.10;99.90;;;;;;7342937;32;20158;-63
2023/01/25 11:51:09;;;;;;;49.83;26.48;;;1.10;99.90;;;;;;7344361;32;20104;-62
2023/01/25 11:55:29;;;;;;;44.30;25.35;;;1.20;99.90;;;;;;7338337;32;20130;-62
2023/01/25 11:59:51;;;;;;;48.15;26.73;;;1.30;99.90;;;;;;7343086;32;20106;-62
2023/01/25 12:04:16;;;;;;;49.03;26.48;;;1.30;99.90;;;;;;7343142;32;20115;-62
2023/01/25 12:08:26;;;;;;;48.90;27.10;;;1.20;99.90;;;;;;7339098;32;20238;-62
2023/01/25 12:12:42;;;;;;;51.47;27.23;;;1.30;99.90;;;;;;7339961;32;20131;-62
2023/01/25 12:17:02;;;;;;;55.10;28.00;;;1.20;99.90;;;;;;7341195;32;20152;-62
2023/01/25 12:21:35;;;;;;;57.62;27.40;;;1.10;99.90;;;;;;7342122;32;20709;-62
2023/01/25 12:25:54;;;;;;;49.85;26.62;;;1.10;99.90;;;;;;7337835;32;20103;-62
2023/01/25 12:30:09;;;;;;;51.03;26.58;;;1.20;99.90;;;;;;7344693;32;20108;-61
2023/01/25 12:34:32;;;;;;;50.47;26.92;;;1.20;99.90;;;;;;7344387;32;20152;-61
2023/01/25 12:38:53;;;;;;;48.95;26.25;;;1.20;99.90;;;;;;7339274;32;20145;-62
2023/01/25 12:42:57;;;;;;;46.58;25.15;;;1.20;99.90;;;;;;7339933;32;20191;-60
2023/01/25 12:47:09;;;;;;;49.67;24.65;;;1.20;99.90;;;;;;7326137;32;20282;-60
2023/01/25 12:51:12;;;;;;;49.95;25.00;;;1.30;99.90;;;;;;7335484;32;20138;-60
2023/01/25 12:55:16;;;;;;;47.35;25.48;;;1.20;99.90;;;;;;7335951;32;20557;-61
2023/01/25 12:59:29;;;;;;;47.25;24.73;;;1.00;99.90;;;;;;7328112;32;20186;-60
2023/01/25 13:03:55;;;;;;;51.33;24.40;;;1.10;99.90;;;;;;7332477;32;20130;-61
2023/01/25 13:08:00;;;;;;;47.83;25.37;;;1.10;99.90;;;;;;7332033;32;20108;-61
2023/01/25 13:12:03;;;;;;;47.92;25.65;;;1.10;99.90;;;;;;7339123;32;20262;-61
2023/01/25 13:16:31;;;;;;;54.50;26.58;;;1.20;99.90;;;;;;7335312;32;20361;-61
2023/01/25 13:20:38;;;;;;;;;;;1.20;99.90;;;;;;7346686;32;20290;-61
2023/01/25 13:25:02;;;;;;;46.83;24.87;;;1.30;99.90;;;;;;7343239;32;20385;-61
2023/01/25 13:29:41;;;;;;;52.97;24.98;;;1.30;99.90;;;;;;7341654;32;20107;-61
2023/01/25 13:33:43;;;;;;;48.72;26.20;;;1.20;99.90;;;;;;7342326;32;20250;-61
2023/01/25 13:38:08;;;;;;;49.10;26.10;;;1.20;99.90;;;;;;7338627;32;20329;-60
2023/01/25 13:42:09;;;;;;;53.17;27.50;;;1.20;99.90;;;;;;7346275;32;20138;-61
2023/01/25 13:46:14;;;;;;;53.63;27.25;;;1.20;99.90;;;;;;7345070;32;20602;-62
2023/01/25 13:50:22;;;;;;;57.72;28.60;;;1.20;99.90;;;;;;7341949;32;20200;-61
2023/01/25 13:54:24;;;;;;;55.50;28.25;;;1.30;99.90;;;;;;7340641;32;20115;-62
2023/01/25 13:58:35;;;;;;;52.20;27.92;;;1.40;99.90;;;;;;7338070;32;20190;-63
2023/01/25 14:02:39;;;;;;;57.08;28.60;;;1.20;99.90;;;;;;7334225;32;20126;-62
2023/01/25 14:06:41;;;;;;;54.17;28.05;;;1.30;99.90;;;;;;7345585;32;20689;-61
2023/01/25 14:10:43;;;;;;;52.62;27.15;;;1.30;99.90;;;;;;7342551;32;20306;-61
2023/01/25 14:14:48;;;;;;;55.17;27.87;;;1.30;99.90;;;;;;7338863;32;20111;-62
2023/01/25 14:18:49;;;;;;;51.33;26.90;;;1.30;99.90;;;;;;7341968;32;20597;-62
2023/01/25 14:22:51;;;;;;;56.83;28.55;;;1.30;99.90;;;;;;7337435;32;20248;-62
2023/01/25 14:26:53;;;;;;;60.33;30.12;;;1.10;99.90;;;;;;7329130;32;20579;-61
2023/01/25 14:30:57;;;;;;;57.05;27.98;;;1.10;99.90;;;;;;7347264;32;20805;-62
2023/01/25 14:35:37;;;;;;;64.10;32.38;;;1.20;99.90;;;;;;7339755;32;20123;-59
2023/01/25 14:39:58;;;;;;;62.80;31.45;;;1.10;99.90;;;;;;7338440;32;20494;-61
2023/01/25 14:44:12;;;;;;;60.70;28.17;;;1.20;99.90;;;;;;7341885;32;20141;-60
2023/01/25 14:48:32;;;;;;;64.57;30.10;;;1.00;99.90;;;;;;7338431;32;20115;-60
2023/01/25 14:52:34;;;;;;;60.90;32.13;;;0.90;99.90;;;;;;7340613;32;20154;-62
2023/01/25 14:56:44;;;;;;;64.93;32.75;;;0.90;99.90;;;;;;7348632;32;20133;-60
2023/01/25 15:00:53;;;;;;;57.20;28.50;;;1.00;99.90;;;;;;7348734;32;20126;-61
2023/01/25 15:05:04;;;;;;;51.15;27.87;;;0.80;99.90;;;;;;7341314;32;20113;-60
2023/01/25 15:09:30;;;;;;;59.50;29.17;;;0.80;99.90;;;;;;7322817;32;20126;-60
2023/01/25 15:13:32;;;;;;;57.33;30.35;;;0.80;99.90;;;;;;7330773;32;20178;-61
2023/01/25 15:17:40;;;;;;;58.42;29.45;;;0.70;99.90;;;;;;7349113;32;20200;-61
2023/01/25 15:21:41;;;;;;;52.28;26.17;;;0.80;99.90;;;;;;7342001;32;20566;-61
2023/01/25 15:25:58;;;;;;;49.42;25.12;;;1.00;99.90;;;;;;7344789;32;20298;-61
2023/01/25 15:29:59;;;;;;;55.23;27.50;;;1.00;99.90;;;;;;7340469;32;20551;-61
2023/01/25 15:34:02;;;;;;;54.38;26.62;;;1.10;99.90;;;;;;7339033;32;20103;-60
2023/01/25 15:38:04;;;;;;;51.88;25.48;;;1.10;99.90;;;;;;7343579;32;20186;-60
2023/01/25 15:42:07;;;;;;;51.92;26.33;;;1.00;99.90;;;;;;7341845;32;20100;-61
2023/01/25 15:46:24;;;;;;;55.08;25.75;;;0.90;99.90;;;;;;7344195;32;20095;-60
2023/01/25 15:50:28;;;;;;;54.45;25.75;;;0.90;99.90;;;;;;7340415;32;20137;-60
2023/01/25 15:54:29;;;;;;;56.60;27.42;;;0.90;99.90;;;;;;7346205;32;20189;-60
2023/01/25 15:58:39;;;;;;;52.72;24.23;;;0.90;99.90;;;;;;7346422;32;20103;-60
2023/01/25 16:02:41;;;;;;;48.55;24.37;;;0.90;99.90;;;;;;7338685;32;20104;-59
2023/01/25 16:06:48;;;;;;;46.25;23.05;;;0.90;99.90;;;;;;7347115;32;20222;-60
2023/01/25 16:10:50;;;;;;;49.40;24.52;;;0.90;99.90;;;;;;7337365;32;20115;-61
2023/01/25 16:14:52;;;;;;;48.80;24.02;;;0.90;99.90;;;;;;7339046;32;20829;-60
2023/01/25 16:18:54;;;;;;;47.25;24.45;;;0.90;99.90;;;;;;7346134;32;20217;-60
2023/01/25 16:22:55;;;;;;;54.15;26.05;;;0.90;99.90;;;;;;7343866;32;20111;-60
2023/01/25 16:26:59;;;;;;;52.88;25.55;;;0.80;99.90;;;;;;7347040;32;20793;-59
2023/01/25 16:31:01;;;;;;;51.67;23.65;;;0.90;99.90;;;;;;7338324;32;20248;-59
2023/01/25 16:35:02;;;;;;;51.58;24.33;;;0.80;99.90;;;;;;7343928;32;20178;-59
2023/01/25 16:39:18;;;;;;;56.03;25.52;;;0.60;99.90;;;;;;7338439;32;20163;-59
2023/01/25 16:43:20;;;;;;;51.05;23.98;;;0.70;99.90;;;;;;7343290;32;20259;-59
2023/01/25 16:47:23;;;;;;;54.60;25.40;;;0.70;99.90;;;;;;7337454;32;20168;-59
2023/01/25 16:51:27;;;;;;;52.67;25.83;;;0.70;99.90;;;;;;7345218;32;20161;-61
2023/01/25 16:55:29;;;;;;;50.28;23.67;;;0.60;99.90;;;;;;7341912;32;20100;-59
2023/01/25 16:59:30;;;;;;;52.65;24.15;;;0.70;99.90;;;;;;7349364;32;20218;-60
2023/01/25 17:03:32;;;;;;;51.60;24.95;;;0.60;99.90;;;;;;7334014;32;20283;-61
2023/01/25 17:07:34;;;;;;;52.17;25.85;;;0.50;99.90;;;;;;7348190;32;20364;-60
2023/01/25 17:11:37;;;;;;;59.65;26.62;;;0.50;99.90;;;;;;7347392;32;20214;-60
2023/01/25 17:15:38;;;;;;;56.58;25.92;;;0.50;99.90;;;;;;7343126;32;20104;-60
2023/01/25 17:19:40;;;;;;;54.85;26.00;;;0.50;99.90;;;;;;7342065;32;20156;-60
2023/01/25 17:23:42;;;;;;;60.58;28.95;;;0.40;99.90;;;;;;7341746;32;21162;-60
2023/01/25 17:27:44;;;;;;;58.67;27.05;;;0.30;99.90;;;;;;7348711;32;20798;-61
2023/01/25 17:31:46;;;;;;;58.35;26.42;;;0.40;99.90;;;;;;7342347;32;20218;-61
2023/01/25 17:35:48;;;;;;;60.42;28.48;;;0.50;99.90;;;;;;7347751;32;20119;-61
2023/01/25 17:39:49;;;;;;;57.33;28.33;;;0.40;99.90;;;;;;7339730;32;20548;-61
2023/01/25 17:43:51;;;;;;;56.67;28.92;;;0.50;99.90;;;;;;7340115;32;20266;-60
2023/01/25 17:47:53;;;;;;;53.17;25.95;;;0.40;99.90;;;;;;7343616;32;20095;-59
2023/01/25 17:51:55;;;;;;;64.37;27.02;;;0.40;99.90;;;;;;7347591;32;20249;-60
2023/01/25 17:56:02;;;;;;;57.83;26.10;;;0.40;99.90;;;;;;7341463;32;20152;-60
2023/01/25 18:00:05;;;;;;;54.67;25.67;;;0.30;99.90;;;;;;7344046;32;20710;-61
2023/01/25 18:04:08;;;;;;;57.40;25.67;;;0.30;99.90;;;;;;7340212;32;20455;-60
2023/01/25 18:08:10;;;;;;;58.38;27.33;;;0.20;99.90;;;;;;7342359;32;22674;-60
2023/01/25 18:12:12;;;;;;;59.97;27.25;;;0.10;99.90;;;;;;7339773;32;20151;-60
2023/01/25 18:16:15;;;;;;;55.22;25.20;;;0.20;99.90;;;;;;7345949;32;20103;-60
2023/01/25 18:20:18;;;;;;;58.05;26.35;;;0.20;99.90;;;;;;7340702;32;20095;-60
2023/01/25 18:24:34;;;;;;;64.55;28.05;;;0.20;99.90;;;;;;7341183;32;20249;-59
2023/01/25 18:28:37;;;;;;;57.53;26.47;;;0.20;99.90;;;;;;7345447;32;20104;-60
2023/01/25 18:32:38;;;;;;;62.30;27.10;;;0.20;99.90;;;;;;7339931;32;20269;-60
2023/01/25 18:36:40;;;;;;;84.78;41.72;;;0.20;99.90;;;;;;7347772;32;20111;-59
2023/01/25 18:40:46;;;;;;;58.33;27.10;;;0.10;99.90;;;;;;7339462;32;20104;-59
2023/01/25 18:44:48;;;;;;;59.40;28.02;;;0.10;99.90;;;;;;7343335;32;20111;-59
2023/01/25 18:48:49;;;;;;;66.57;30.83;;;0.00;99.90;;;;;;7337576;32;20111;-59
2023/01/25 18:52:53;;;;;;;65.55;30.85;;;0.00;99.90;;;;;;7345301;32;20155;-60
2023/01/25 18:56:54;;;;;;;65.85;31.58;;;0.00;99.90;;;;;;7345051;32;20186;-60
2023/01/25 19:01:13;;;;;;;64.95;30.10;;;0.00;99.90;;;;;;7344202;32;20286;-61
2023/01/25 19:05:17;;;;;;;69.45;31.37;;;0.10;99.90;;;;;;7347651;32;20483;-61
2023/01/25 19:09:19;;;;;;;67.55;30.65;;;0.10;99.90;;;;;;7343808;32;20415;-58
2023/01/25 19:13:20;;;;;;;69.37;31.17;;;0.00;99.90;;;;;;7347213;32;20171;-60
2023/01/25 19:17:22;;;;;;;64.65;29.33;;;-0.10;99.90;;;;;;7337110;32;20483;-60
2023/01/25 19:21:26;;;;;;;69.28;32.20;;;0.00;99.90;;;;;;7340166;32;20213;-60
2023/01/25 19:25:29;;;;;;;81.85;36.70;;;0.00;99.90;;;;;;7344287;32;20231;-60
2023/01/25 19:29:31;;;;;;;81.10;36.67;;;0.00;99.90;;;;;;7344712;32;20119;-60
2023/01/25 19:33:33;;;;;;;75.37;36.17;;;0.00;99.90;;;;;;7339756;32;20554;-60
2023/01/25 19:37:35;;;;;;;77.60;36.00;;;0.00;99.90;;;;;;7341065;32;20207;-61
2023/01/25 19:41:37;;;;;;;74.43;34.60;;;0.00;99.90;;;;;;7340512;32;20131;-62
2023/01/25 19:45:39;;;;;;;72.87;33.45;;;0.00;99.90;;;;;;7341067;32;20123;-59
2023/01/25 19:49:41;;;;;;;77.12;34.33;;;-0.10;99.90;;;;;;7340341;32;20103;-60
2023/01/25 19:53:45;;;;;;;71.55;33.65;;;-0.20;99.90;;;;;;7334955;32;20186;-60
2023/01/25 19:57:47;;;;;;;67.35;30.88;;;-0.20;99.90;;;;;;7340400;32;20593;-61
2023/01/25 20:01:48;;;;;;;60.28;27.85;;;-0.10;99.90;;;;;;7344190;32;20151;-61
2023/01/25 20:05:57;;;;;;;70.32;34.83;;;-0.10;99.90;;;;;;7340018;32;20103;-61
2023/01/25 20:09:59;;;;;;;70.62;30.75;;;0.00;99.90;;;;;;7344879;32;20251;-60
2023/01/25 20:14:04;;;;;;;71.53;32.53;;;0.00;99.90;;;;;;7341152;32;20107;-60
2023/01/25 20:18:05;;;;;;;81.50;35.90;;;-0.10;99.90;;;;;;7344306;32;20226;-60
2023/01/25 20:22:07;;;;;;;85.70;38.45;;;-0.10;99.90;;;;;;7341435;32;20178;-60
2023/01/25 20:26:18;;;;;;;86.97;37.35;;;-0.20;99.90;;;;;;7341007;32;20303;-60
2023/01/25 20:30:20;;;;;;;83.37;35.90;;;-0.20;99.90;;;;;;7337203;32;20247;-60
2023/01/25 20:34:22;;;;;;;81.57;36.10;;;-0.30;99.90;;;;;;7343003;32;20475;-60
2023/01/25 20:38:28;;;;;;;89.65;37.55;;;-0.20;99.90;;;;;;7340569;32;20689;-60
2023/01/25 20:42:30;;;;;;;82.72;36.63;;;-0.20;99.90;;;;;;7343613;32;20174;-61
2023/01/25 20:46:33;;;;;;;86.00;36.08;;;-0.30;99.90;;;;;;7345857;32;20137;-60
2023/01/25 20:50:35;;;;;;;79.72;36.20;;;-0.30;99.90;;;;;;7339556;32;20306;-59
2023/01/25 20:54:37;;;;;;;90.12;38.70;;;-0.30;99.90;;;;;;7345505;32;20107;-60
2023/01/25 20:58:38;;;;;;;85.47;37.40;;;-0.20;99.90;;;;;;7344929;32;20210;-60
2023/01/25 21:02:40;;;;;;;86.55;38.40;;;-0.10;99.90;;;;;;7345656;32;20214;-61